Flight Track Log - Related Links

Times and Time Zones

All times are in EDT time to prevent confusion due to time zone crossing. See the VH-XFD flight status page for this flight to view local times or setup timezone preferences in your user account.

Time Position Orientation Groundspeed Altitude Reporting Facility
EDT Latitude Longitude Course Direction KTS MPH feet Rate Location/Type
Fri 05:19:24 AM -33.9380 151.1800 284° West 2 2  Level FlightAware ADS-B
Fri 05:24:54 AM -33.9380 151.1790 270° West 6 7 75 Level FlightAware ADS-B
Fri 05:25:19 AM -33.9380 151.1780 270° West 8 9 129 Level FlightAware ADS-B
Fri 05:25:49 AM -33.9390 151.1770 220° Southwest 10 12 136 Level FlightAware ADS-B
Fri 05:26:14 AM -33.9380 151.1760 320° Northwest 12 14 146 Level FlightAware ADS-B
Fri 05:26:29 AM -33.9370 151.1760 360° North 15 17 155 Level FlightAware ADS-B
Fri 05:26:54 AM -33.9350 151.1750 337° Northwest 16 18 162 Level FlightAware ADS-B
Fri 05:27:24 AM -33.9330 151.1750 360° North 16 18 173 Level FlightAware ADS-B
Fri 05:27:54 AM -33.9310 151.1740 337° Northwest 13 15 190 Level FlightAware ADS-B
Fri 05:28:24 AM -33.9300 151.1740 360° North 5 6 210 Level FlightAware ADS-B
Fri 05:28:54 AM -33.9300 151.1730 270° West 2 2 234 Level FlightAware ADS-B
Fri 05:31:00 AM -33.8651 150.9115 287° West  Level FlightAware Approximate
Fri 05:31:14 AM -33.9300 151.1720 287° West 6 7  Level FlightAware ADS-B
Fri 05:31:34 AM -33.9310 151.1720 180° South 18 21 698 Level FlightAware ADS-B
Fri 05:31:59 AM -33.9400 151.1740 170° South 125 144 909 Level FlightAware ADS-B
Fri 05:32:14 AM -33.9510 151.1770 167° South 165 190 1,463 Level FlightAware ADS-B
Fri 05:32:40 AM -33.9690 151.1810 170° South 151 174 1,000 1,385 Climbing FlightAware ADS-B
Fri 05:33:19 AM -34.0030 151.1790 183° South 210 242 1,500 915 Climbing FlightAware ADS-B
Fri 05:33:39 AM -34.0240 151.1760 187° South 228 262 1,900 1,350 Climbing FlightAware ADS-B
Fri 05:33:59 AM -34.0470 151.1810 170° South 247 284 2,400 2,133 Climbing FlightAware ADS-B
Fri 05:34:24 AM -34.0740 151.1910 163° South 252 290 3,500 2,769 Climbing FlightAware ADS-B
Fri 05:34:51 AM -34.1050 151.2010 165° South 259 298 4,800 2,805 Climbing FlightAware ADS-B
Fri 05:35:41 AM -34.1670 151.2060 165° South 264 304 7,100 3,231 Climbing FlightAware ADS-B
Fri 05:35:43 AM -34.1701 151.2054 165° South 258 297 7,600 2,000 Climbing Aus ATC (RADAR)
Fri 05:35:56 AM -34.1800 151.1920 222° Southwest 271 312 7,600 1,500 Level FlightAware ADS-B
Fri 05:36:11 AM -34.1860 151.1720 250° West 276 318 8,300 2,400 Climbing FlightAware ADS-B
Fri 05:36:36 AM -34.1790 151.1340 283° West 295 339 9,200 2,100 Climbing FlightAware ADS-B
Fri 05:36:51 AM -34.1630 151.1140 314° West 307 353 9,700 1,091 Climbing FlightAware ADS-B
Fri 05:37:31 AM -34.1080 151.0790 332° Northwest 351 404 10,200 1,558 Climbing FlightAware ADS-B
Fri 05:38:08 AM -34.0555 151.0356 332° Northwest 362 417 11,700 1,745 Climbing Aus ATC (RADAR)
Fri 05:38:26 AM -34.0370 151.0200 332° Northwest 374 430 11,800 1,778 Climbing FlightAware ADS-B
Fri 05:39:02 AM -33.9830 150.9690 322° Northwest 373 429 13,300 2,316 Climbing FlightAware ADS-B
Fri 05:39:23 AM -33.9640 150.9340 303° West 373 429 14,000 2,400 Climbing FlightAware ADS-B
Fri 05:40:02 AM -33.9360 150.8550 293° West 373 429 15,700 2,354 Climbing FlightAware ADS-B
Fri 05:40:42 AM -33.9070 150.7810 295° West 379 436 17,100 2,047 Climbing FlightAware ADS-B
Fri 05:41:27 AM -33.8720 150.6940 296° West 381 438 18,600 2,047 Climbing FlightAware ADS-B
Fri 05:42:07 AM -33.8400 150.6160 296° West 382 440 20,000 2,780 Climbing FlightAware ADS-B
Fri 05:42:08 AM -33.8391 150.6131 296° West 371 427 20,500 1,714 Climbing Aus ATC (RADAR)
Fri 05:42:42 AM -33.8130 150.5490 296° West 386 444 21,000 1,367 Climbing FlightAware ADS-B
Fri 05:43:27 AM -33.7780 150.4630 296° West 387 445 22,300 1,553 Climbing FlightAware ADS-B
Fri 05:44:07 AM -33.7450 150.3820 296° West 397 457 23,200 2,049 Climbing FlightAware ADS-B
Fri 05:44:08 AM -33.7440 150.3799 296° West 381 438 23,700 1,350 Climbing Aus ATC (RADAR)
Fri 05:44:47 AM -33.7160 150.3020 296° West 395 455 24,100 1,200 Climbing FlightAware ADS-B
Fri 05:44:48 AM -33.7147 150.2988 296° West 388 447 24,500 1,333 Climbing Aus ATC (RADAR)
Fri 05:45:32 AM -33.7190 150.2050 268° West 391 450 25,100 929 Climbing FlightAware ADS-B
Fri 05:46:12 AM -33.7270 150.1180 264° West 400 460 25,800 1,352 Climbing FlightAware ADS-B
Fri 05:46:43 AM -33.7332 150.0474 264° West 390 449 26,700 933 Climbing Aus ATC (RADAR)
Fri 05:46:57 AM -33.7360 150.0150 264° West 408 470 26,500 2,082 Descending FlightAware ADS-B
Fri 05:47:32 AM -33.7420 149.9410 264° West 381 438 28,400 3,171 Climbing FlightAware ADS-B
Fri 05:48:07 AM -33.7480 149.8700 264° West 352 405 30,200 1,800 Climbing FlightAware ADS-B
Fri 05:48:52 AM -33.7560 149.7810 264° West 360 414 30,800 1,304 Climbing FlightAware ADS-B
Fri 05:48:53 AM -33.7560 149.7794 264° West 348 400 31,200 1,050 Climbing Aus ATC (RADAR)
Fri 05:49:32 AM -33.7630 149.7020 264° West 363 418 31,500 955 Climbing FlightAware ADS-B
Fri 05:49:37 AM -33.7639 149.6899 264° West 350 403 31,900 2,000 Climbing Aus ATC (RADAR)
Fri 05:50:02 AM -33.7678 149.6397 264° West 351 404 32,500 900 Climbing Aus ATC (RADAR)
Fri 05:50:17 AM -33.7700 149.6150 264° West 360 414 32,500 1,309 Level FlightAware ADS-B
Fri 05:50:57 AM -33.7770 149.5310 264° West 350 403 33,700 1,047 Climbing FlightAware ADS-B
Fri 05:51:43 AM -33.7840 149.4450 264° West 358 412 34,000 212 Climbing FlightAware ADS-B
Fri 05:52:22 AM -33.7910 149.3640 264° West 379 436 34,000  Level FlightAware ADS-B
Fri 05:53:07 AM -33.7990 149.2690 264° West 390 449 34,000 300 Level FlightAware ADS-B
Fri 05:53:42 AM -33.8048 149.1913 264° West 380 437 34,400  Climbing Aus ATC (RADAR)
Fri 05:53:47 AM -33.8060 149.1830 264° West 389 448 34,000  Descending FlightAware ADS-B
Fri 05:54:27 AM -33.8126 149.0945 264° West 380 437 34,400  Climbing Aus ATC (RADAR)
Fri 05:54:32 AM -33.8130 149.0860 264° West 388 447 34,000  Descending FlightAware ADS-B
Fri 05:55:02 AM -33.8183 149.0198 264° West 378 435 34,400  Climbing Aus ATC (RADAR)
Fri 05:55:07 AM -33.8190 149.0100 264° West 388 447 34,000  Descending FlightAware ADS-B
Fri 05:55:37 AM -33.8246 148.9446 264° West 380 437 34,400  Climbing Aus ATC (RADAR)
Fri 05:55:52 AM -33.8270 148.9130 264° West 389 448 34,000 -480 Descending FlightAware ADS-B
Fri 05:56:27 AM -33.8330 148.8360 265° West 390 449 34,000  Level FlightAware ADS-B
Fri 05:57:13 AM -33.8400 148.7460 265° West 391 450 34,000  Level FlightAware ADS-B
Fri 05:57:52 AM -33.8470 148.6540 265° West 391 450 34,000 545 Level FlightAware ADS-B
Fri 05:57:57 AM -33.8482 148.6428 265° West 383 441 34,400  Climbing Aus ATC (RADAR)
Fri 05:58:27 AM -33.8590 148.5780 265° West 391 450 34,000  Descending FlightAware ADS-B
Fri 05:58:31 AM -33.8608 148.5683 265° West 383 441 34,400  Climbing Aus ATC (RADAR)
Fri 05:59:07 AM -33.8730 148.4940 259° West 391 450 34,000  Descending FlightAware ADS-B
Fri 05:59:46 AM -33.8871 148.4090 259° West 383 441 34,400  Climbing Aus ATC (RADAR)
Fri 06:00:04 AM -33.8930 148.3740 259° West 391 450 34,000 -381 Descending FlightAware ADS-B
Fri 06:00:49 AM -33.9090 148.2770 259° West 392 451 34,000  Level FlightAware ADS-B
Fri 06:01:29 AM -33.9230 148.1930 259° West 395 455 34,000 308 Level FlightAware ADS-B
Fri 06:02:07 AM -33.9364 148.1077 259° West 388 447 34,400  Climbing Aus ATC (RADAR)
Fri 06:02:14 AM -33.9390 148.0950 259° West 396 456 34,000 -429 Descending FlightAware ADS-B
Fri 06:03:03 AM -33.9560 147.9890 259° West 395 455 34,000  Level FlightAware ADS-B
Fri 06:03:45 AM -33.9700 147.8970 260° West 394 453 34,000  Level FlightAware ADS-B
Fri 06:04:24 AM -33.9840 147.8120 260° West 394 453 34,000 585 Level FlightAware ADS-B
Fri 06:04:26 AM -33.9851 147.8048 260° West 387 445 34,400 649 Climbing Aus ATC (RADAR)
Fri 06:05:01 AM -33.9975 147.7294 260° West 388 447 34,400 -615 Level Aus ATC (RADAR)
Fri 06:05:05 AM -33.9980 147.7240 260° West 394 453 34,000  Descending FlightAware ADS-B
Fri 06:05:41 AM -34.0111 147.6428 260° West 388 447 34,400  Climbing Aus ATC (RADAR)
Fri 06:05:49 AM -34.0130 147.6270 260° West 395 455 34,000 -490 Descending FlightAware ADS-B
Fri 06:06:30 AM -34.0280 147.5380 258° West 395 455 34,000  Level FlightAware ADS-B
Fri 06:07:10 AM -34.0410 147.4530 260° West 395 455 34,000  Level FlightAware ADS-B
Fri 06:07:55 AM -34.0560 147.3550 260° West 395 455 34,000  Level FlightAware ADS-B
Fri 06:08:30 AM -34.0680 147.2790 259° West 396 456 34,000  Level FlightAware ADS-B
Fri 06:09:10 AM -34.0810 147.1910 260° West 397 457 34,000 300 Level FlightAware ADS-B
Fri 06:09:50 AM -34.0960 147.1004 260° West 391 450 34,400  Climbing Aus ATC (RADAR)
Fri 06:09:51 AM -34.0950 147.1030 260° West 397 457 34,000 -667 Descending FlightAware ADS-B
Fri 06:10:26 AM -34.1070 147.0240 260° West 397 457 34,000  Level FlightAware ADS-B
Fri 06:10:51 AM -34.1150 146.9710 260° West 396 456 34,000  Level FlightAware ADS-B
Fri 06:11:34 AM -34.1290 146.8800 259° West 395 455 34,000  Level FlightAware ADS-B
Fri 06:12:09 AM -34.1410 146.8010 260° West 394 453 34,000  Level FlightAware ADS-B
Fri 06:12:54 AM -34.1560 146.7040 259° West 395 455 34,000  Level FlightAware ADS-B
Fri 06:13:39 AM -34.1700 146.6080 259° West 396 456 34,000 522 Level FlightAware ADS-B
Fri 06:13:40 AM -34.1714 146.6014 259° West 389 448 34,400 774 Climbing Aus ATC (RADAR)
Fri 06:14:10 AM -34.1814 146.5364 259° West 390 449 34,400 -615 Level Aus ATC (RADAR)
Fri 06:14:19 AM -34.1830 146.5210 259° West 397 457 34,000 -453 Descending FlightAware ADS-B
Fri 06:15:03 AM -34.1970 146.4240 260° West 397 457 34,000  Level FlightAware ADS-B
Fri 06:15:44 AM -34.2110 146.3340 259° West 399 459 34,000  Level FlightAware ADS-B
Fri 06:16:24 AM -34.2230 146.2480 259° West 399 459 34,000 533 Level FlightAware ADS-B
Fri 06:16:29 AM -34.2257 146.2314 259° West 392 451 34,400  Climbing Aus ATC (RADAR)
Fri 06:17:04 AM -34.2360 146.1590 260° West 400 460 34,000 -320 Descending FlightAware ADS-B
Fri 06:17:44 AM -34.2490 146.0710 260° West 398 458 34,000 300 Level FlightAware ADS-B
Fri 06:18:24 AM -34.2608 145.9795 260° West 391 450 34,400  Climbing Aus ATC (RADAR)
Fri 06:18:24 AM -34.2600 145.9830 260° West 395 455 34,000 -600 Descending FlightAware ADS-B
Fri 06:19:04 AM -34.2710 145.8970 260° West 394 453 34,000 533 Level FlightAware ADS-B
Fri 06:19:09 AM -34.2725 145.8816 260° West 389 448 34,400  Climbing Aus ATC (RADAR)
Fri 06:19:49 AM -34.2830 145.7990 262° West 394 453 34,000 -296 Descending FlightAware ADS-B
Fri 06:20:30 AM -34.2940 145.7080 262° West 395 455 34,000  Level FlightAware ADS-B
Fri 06:21:09 AM -34.3040 145.6250 262° West 397 457 34,000  Level FlightAware ADS-B
Fri 06:21:55 AM -34.3160 145.5220 262° West 398 458 34,000  Level FlightAware ADS-B
Fri 06:22:30 AM -34.3250 145.4450 262° West 398 458 34,000  Level FlightAware ADS-B
Fri 06:23:10 AM -34.3360 145.3540 262° West 396 456 34,000 286 Level FlightAware ADS-B
Fri 06:23:54 AM -34.3482 145.2573 262° West 392 451 34,400  Climbing Aus ATC (RADAR)
Fri 06:23:55 AM -34.3480 145.2580 262° West 396 456 34,000  Descending FlightAware ADS-B
Fri 06:24:29 AM -34.3569 145.1801 262° West 393 452 34,400  Climbing Aus ATC (RADAR)
Fri 06:24:34 AM -34.3580 145.1670 262° West 397 457 34,000  Descending FlightAware ADS-B
Fri 06:25:04 AM -34.3659 145.1032 262° West 393 452 34,400  Climbing Aus ATC (RADAR)
Fri 06:25:20 AM -34.3700 145.0700 262° West 395 455 34,000  Descending FlightAware ADS-B
Fri 06:25:54 AM -34.3786 144.9934 262° West 392 451 34,400  Climbing Aus ATC (RADAR)
Fri 06:25:59 AM -34.3790 144.9860 262° West 394 453 34,000 -471 Descending FlightAware ADS-B
Fri 06:26:45 AM -34.3910 144.8840 262° West 394 453 34,000  Level FlightAware ADS-B
Fri 06:27:25 AM -34.4010 144.7990 262° West 394 453 34,000  Level FlightAware ADS-B
Fri 06:28:05 AM -34.4110 144.7090 262° West 395 455 34,000 558 Level FlightAware ADS-B
Fri 06:28:08 AM -34.4122 144.6986 262° West 390 449 34,400 632 Climbing Aus ATC (RADAR)
Fri 06:28:43 AM -34.4210 144.6220 262° West 391 450 34,400 -649 Level Aus ATC (RADAR)
Fri 06:28:45 AM -34.4210 144.6230 262° West 395 455 34,000  Descending FlightAware ADS-B
Fri 06:29:23 AM -34.4309 144.5347 262° West 390 449 34,400  Climbing Aus ATC (RADAR)
Fri 06:29:24 AM -34.4300 144.5370 262° West 395 455 34,000  Descending FlightAware ADS-B
Fri 06:29:58 AM -34.4394 144.4580 262° West 392 451 34,400  Climbing Aus ATC (RADAR)
Fri 06:30:05 AM -34.4410 144.4450 262° West 395 455 34,000 -522 Descending FlightAware ADS-B
Fri 06:30:44 AM -34.4500 144.3600 263° West 395 455 34,000  Level FlightAware ADS-B
Fri 06:31:30 AM -34.4610 144.2600 262° West 394 453 34,000  Level FlightAware ADS-B
Fri 06:32:10 AM -34.4700 144.1760 263° West 393 452 34,000  Level FlightAware ADS-B
Fri 06:32:50 AM -34.4800 144.0870 262° West 393 452 34,000  Level FlightAware ADS-B
Fri 06:33:30 AM -34.4880 144.0110 262° West 393 452 34,000 419 Level FlightAware ADS-B
Fri 06:33:33 AM -34.4905 143.9892 262° West 388 447 34,300 474 Climbing Aus ATC (RADAR)
Fri 06:34:08 AM -34.4988 143.9126 262° West 390 449 34,300 -486 Level Aus ATC (RADAR)
Fri 06:34:10 AM -34.4980 143.9150 262° West 393 452 34,000 -333 Descending FlightAware ADS-B
Fri 06:35:02 AM -34.5100 143.8030 263° West 392 451 34,000 184 Level FlightAware ADS-B
Fri 06:35:48 AM -34.5215 143.6955 263° West 387 445 34,300  Climbing Aus ATC (RADAR)
Fri 06:35:50 AM -34.5210 143.6970 263° West 392 451 34,000  Descending FlightAware ADS-B
Fri 06:36:22 AM -34.5292 143.6201 263° West 387 445 34,300  Climbing Aus ATC (RADAR)
Fri 06:36:27 AM -34.5300 143.6130 263° West 393 452 34,000 600 Descending FlightAware ADS-B
Fri 06:37:12 AM -34.5400 143.5140 263° West 392 451 34,800 1,267 Climbing FlightAware ADS-B
Fri 06:37:57 AM -34.5500 143.4160 263° West 385 443 35,900 900 Climbing FlightAware ADS-B
Fri 06:38:32 AM -34.5580 143.3410 263° West 389 448 36,000 80 Climbing FlightAware ADS-B
Fri 06:39:12 AM -34.5670 143.2540 263° West 388 447 36,000 240 Level FlightAware ADS-B
Fri 06:39:47 AM -34.5745 143.1780 263° West 386 444 36,300  Climbing Aus ATC (RADAR)
Fri 06:39:52 AM -34.5750 143.1710 263° West 388 447 36,000  Descending FlightAware ADS-B
Fri 06:40:22 AM -34.5818 143.1027 263° West 385 443 36,300  Climbing Aus ATC (RADAR)
Fri 06:40:27 AM -34.5830 143.0930 263° West 385 443 36,000  Descending FlightAware ADS-B
Fri 06:40:57 AM -34.5896 143.0277 263° West 383 441 36,300  Climbing Aus ATC (RADAR)
Fri 06:41:08 AM -34.5910 143.0080 263° West 385 443 36,000 -316 Descending FlightAware ADS-B
Fri 06:41:54 AM -34.6010 142.9090 263° West 385 443 36,000  Level FlightAware ADS-B
Fri 06:42:33 AM -34.6090 142.8230 264° West 386 444 36,000 217 Level FlightAware ADS-B
Fri 06:43:17 AM -34.6189 142.7268 264° West 385 443 36,300  Climbing Aus ATC (RADAR)
Fri 06:43:18 AM -34.6190 142.7260 264° West 386 444 36,000 -439 Descending FlightAware ADS-B
Fri 06:43:58 AM -34.6270 142.6390 264° West 388 447 36,000  Level FlightAware ADS-B
Fri 06:44:43 AM -34.6360 142.5410 264° West 390 449 36,000  Level FlightAware ADS-B
Fri 06:45:13 AM -34.6420 142.4850 263° West 390 449 36,000  Level FlightAware ADS-B
Fri 06:45:55 AM -34.6510 142.3860 264° West 391 450 36,000  Level FlightAware ADS-B
Fri 06:46:40 AM -34.6600 142.2890 264° West 392 451 36,000 140 Level FlightAware ADS-B
Fri 06:47:21 AM -34.6689 142.1935 264° West 390 449 36,200  Climbing Aus ATC (RADAR)
Fri 06:47:31 AM -34.6700 142.1760 264° West 394 453 36,000  Descending FlightAware ADS-B
Fri 06:48:11 AM -34.6787 142.0840 264° West 390 449 36,200  Climbing Aus ATC (RADAR)
Fri 06:48:11 AM -34.6780 142.0850 264° West 394 453 36,000 -267 Descending FlightAware ADS-B
Fri 06:48:56 AM -34.6870 141.9890 263° West 394 453 36,000  Level FlightAware ADS-B
Fri 06:49:36 AM -34.6950 141.9020 264° West 392 451 36,000  Level FlightAware ADS-B
Fri 06:50:16 AM -34.7030 141.8130 264° West 391 450 36,000 267 Level FlightAware ADS-B
Fri 06:50:21 AM -34.7039 141.7995 264° West 389 448 36,200 300 Climbing Aus ATC (RADAR)
Fri 06:50:56 AM -34.7108 141.7236 264° West 387 445 36,200 -300 Level Aus ATC (RADAR)
Fri 06:51:01 AM -34.7110 141.7160 264° West 391 450 36,000  Descending FlightAware ADS-B
Fri 06:51:31 AM -34.7173 141.6470 264° West 390 449 36,200  Climbing Aus ATC (RADAR)
Fri 06:51:41 AM -34.7180 141.6320 264° West 393 452 36,000 -235 Descending FlightAware ADS-B
Fri 06:52:22 AM -34.7260 141.5400 264° West 394 453 36,000  Level FlightAware ADS-B
Fri 06:53:02 AM -34.7340 141.4530 264° West 393 452 36,000  Level FlightAware ADS-B
Fri 06:53:46 AM -34.7430 141.3500 264° West 394 453 36,000 245 Level FlightAware ADS-B
Fri 06:53:51 AM -34.7437 141.3398 264° West 392 451 36,200 343 Climbing Aus ATC (RADAR)
Fri 06:54:21 AM -34.7492 141.2740 264° West 391 450 36,200 -286 Level Aus ATC (RADAR)
Fri 06:54:33 AM -34.7510 141.2500 264° West 393 452 36,000 -250 Descending FlightAware ADS-B
Fri 06:55:09 AM -34.7570 141.1750 264° West 392 451 36,000  Level FlightAware ADS-B
Fri 06:55:56 AM -34.7660 141.0690 264° West 389 448 36,000  Level FlightAware ADS-B
Fri 06:56:29 AM -34.7710 141.0000 265° West 388 447 36,000  Level FlightAware ADS-B
Fri 06:57:09 AM -34.7790 140.9120 265° West 388 447 36,000 293 Level FlightAware ADS-B
Fri 06:57:10 AM -34.7799 140.9045 265° West 386 444 36,200 293 Climbing Aus ATC (RADAR)
Fri 06:57:50 AM -34.7872 140.8181 265° West 386 444 36,200 -300 Level Aus ATC (RADAR)
Fri 06:57:50 AM -34.7860 140.8240 265° West 389 448 36,000  Descending FlightAware ADS-B
Fri 06:58:20 AM -34.7918 140.7530 265° West 385 443 36,200  Climbing Aus ATC (RADAR)
Fri 06:58:26 AM -34.7920 140.7430 265° West 389 448 36,000 -235 Descending FlightAware ADS-B
Fri 06:59:11 AM -34.8000 140.6480 264° West 389 448 36,000  Level FlightAware ADS-B
Fri 06:59:51 AM -34.8060 140.5620 265° West 388 447 36,000  Level FlightAware ADS-B
Fri 07:00:31 AM -34.8130 140.4730 265° West 387 445 36,000 152 Level FlightAware ADS-B
Fri 07:01:10 AM -34.8206 140.3852 265° West 386 444 36,200  Climbing Aus ATC (RADAR)
Fri 07:01:11 AM -34.8190 140.3920 265° West 389 448 36,000 -293 Descending FlightAware ADS-B
Fri 07:01:51 AM -34.8260 140.3040 264° West 391 450 36,000  Level FlightAware ADS-B
Fri 07:02:31 AM -34.8330 140.2120 265° West 392 451 36,000  Level FlightAware ADS-B
Fri 07:03:16 AM -34.8400 140.1220 265° West 391 450 36,000 135 Level FlightAware ADS-B
Fri 07:04:00 AM -34.8482 140.0147 265° West 389 448 36,200  Climbing Aus ATC (RADAR)
Fri 07:04:11 AM -34.8490 139.9950 265° West 389 448 36,000 -235 Descending FlightAware ADS-B
Fri 07:04:51 AM -34.8550 139.9050 265° West 389 448 36,000  Level FlightAware ADS-B
Fri 07:05:31 AM -34.8620 139.8180 264° West 390 449 36,000  Level FlightAware ADS-B
Fri 07:06:12 AM -34.8680 139.7340 265° West 389 448 36,000 154 Level FlightAware ADS-B
Fri 07:06:49 AM -34.8741 139.6454 265° West 384 442 36,200  Climbing Aus ATC (RADAR)
Fri 07:06:56 AM -34.8750 139.6310 265° West 386 444 36,000 -255 Descending FlightAware ADS-B
Fri 07:07:36 AM -34.8810 139.5470 265° West 384 442 36,000 164 Level FlightAware ADS-B
Fri 07:08:09 AM -34.8859 139.4731 265° West 383 441 36,200  Climbing Aus ATC (RADAR)
Fri 07:08:16 AM -34.8860 139.4660 265° West 383 441 36,000  Descending FlightAware ADS-B
Fri 07:09:09 AM -34.8947 139.3448 265° West 380 437 36,200  Climbing Aus ATC (RADAR)
Fri 07:09:11 AM -34.8950 139.3430 265° West 384 442 36,000 -279 Descending FlightAware ADS-B
Fri 07:09:52 AM -34.9000 139.2560 265° West 384 442 36,000 279 Level FlightAware ADS-B
Fri 07:09:54 AM -34.9013 139.2479 265° West 384 442 36,200 375 Climbing Aus ATC (RADAR)
Fri 07:10:24 AM -34.9050 139.1836 265° West 383 441 36,200 -279 Level Aus ATC (RADAR)
Fri 07:10:37 AM -34.9070 139.1580 265° West 384 442 36,000  Descending FlightAware ADS-B
Fri 07:11:34 AM -34.9151 139.0334 265° West 382 440 36,200  Climbing Aus ATC (RADAR)
Fri 07:11:34 AM -34.9140 139.0520 265° West 383 441 36,000  Descending FlightAware ADS-B
Fri 07:12:09 AM -34.9198 138.9588 265° West 380 437 36,200  Climbing Aus ATC (RADAR)
Fri 07:12:12 AM -34.9200 138.9550 265° West 381 438 36,000  Descending FlightAware ADS-B
Fri 07:12:49 AM -34.9251 138.8733 265° West 381 438 36,200  Climbing Aus ATC (RADAR)
Fri 07:12:56 AM -34.9260 138.8580 265° West 383 441 36,000 -226 Descending FlightAware ADS-B
Fri 07:13:42 AM -34.9320 138.7600 266° West 384 442 36,000  Level FlightAware ADS-B
Fri 07:14:12 AM -34.9360 138.6970 266° West 385 443 36,000  Level FlightAware ADS-B
Fri 07:14:57 AM -34.9420 138.5970 266° West 387 445 36,000  Level FlightAware ADS-B
Fri 07:15:37 AM -34.9480 138.5130 265° West 386 444 36,000  Level FlightAware ADS-B
Fri 07:16:22 AM -34.9560 138.4140 264° West 386 444 36,000 148 Level FlightAware ADS-B
Fri 07:16:58 AM -34.9629 138.3306 264° West 385 443 36,200  Climbing Aus ATC (RADAR)
Fri 07:17:02 AM -34.9630 138.3270 264° West 387 445 36,000  Descending FlightAware ADS-B
Fri 07:17:38 AM -34.9698 138.2435 264° West 388 447 36,200  Climbing Aus ATC (RADAR)
Fri 07:17:46 AM -34.9710 138.2300 264° West 389 448 36,000 -273 Descending FlightAware ADS-B
Fri 07:18:22 AM -34.9770 138.1530 265° West 389 448 36,000  Level FlightAware ADS-B
Fri 07:19:06 AM -34.9850 138.0560 264° West 390 449 36,000  Level FlightAware ADS-B
Fri 07:19:42 AM -34.9910 137.9770 265° West 390 449 36,000  Level FlightAware ADS-B
Fri 07:20:27 AM -34.9990 137.8800 264° West 390 449 36,000 132 Level FlightAware ADS-B
Fri 07:21:13 AM -35.0062 137.7747 264° West 390 449 36,200  Climbing Aus ATC (RADAR)
Fri 07:21:21 AM -35.0080 137.7600 264° West 391 450 36,000 -245 Descending FlightAware ADS-B
Fri 07:22:02 AM -35.0150 137.6720 264° West 392 451 36,000  Level FlightAware ADS-B
Fri 07:22:47 AM -35.0220 137.5740 265° West 391 450 36,000  Level FlightAware ADS-B
Fri 07:23:27 AM -35.0290 137.4830 265° West 390 449 36,000 293 Level FlightAware ADS-B
Fri 07:23:28 AM -35.0282 137.4788 265° West 391 450 36,200  Climbing Aus ATC (RADAR)
Fri 07:24:07 AM -35.0350 137.3970 265° West 389 448 36,000 -162 Descending FlightAware ADS-B
Fri 07:24:42 AM -35.0410 137.3210 265° West 388 447 36,000 293 Level FlightAware ADS-B
Fri 07:24:48 AM -35.0410 137.3045 265° West 388 447 36,200 300 Climbing Aus ATC (RADAR)
Fri 07:25:22 AM -35.0464 137.2281 265° West 389 448 36,200 -308 Level Aus ATC (RADAR)
Fri 07:25:27 AM -35.0480 137.2250 265° West 389 448 36,000 -300 Descending FlightAware ADS-B
Fri 07:26:02 AM -35.0530 137.1460 266° West 391 450 36,000  Level FlightAware ADS-B
Fri 07:26:43 AM -35.0590 137.0590 265° West 392 451 36,000  Level FlightAware ADS-B
Fri 07:27:26 AM -35.0660 136.9620 265° West 393 452 36,000  Level FlightAware ADS-B
Fri 07:28:02 AM -35.0720 136.8810 265° West 393 452 36,000  Level FlightAware ADS-B
Fri 07:28:43 AM -35.0780 136.7930 265° West 393 452 36,000  Level FlightAware ADS-B
Fri 07:29:23 AM -35.0840 136.7020 265° West 393 452 36,000 273 Level FlightAware ADS-B
Fri 07:29:27 AM -35.0839 136.6894 265° West 392 451 36,200 308 Climbing Aus ATC (RADAR)
Fri 07:30:02 AM -35.0887 136.6119 265° West 394 453 36,200 -333 Level Aus ATC (RADAR)
Fri 07:30:03 AM -35.0900 136.6150 265° West 395 455 36,000  Descending FlightAware ADS-B
Fri 07:30:37 AM -35.0943 136.5342 265° West 397 457 36,200  Climbing Aus ATC (RADAR)
Fri 07:30:48 AM -35.0970 136.5130 265° West 397 457 36,000 -235 Descending FlightAware ADS-B
Fri 07:31:28 AM -35.1020 136.4300 266° West 397 457 36,000 532 Level FlightAware ADS-B
Fri 07:32:07 AM -35.1080 136.3360 266° West 393 452 36,700 867 Climbing FlightAware ADS-B
Fri 07:32:51 AM -35.1131 136.2367 266° West 384 442 37,200 391 Climbing Aus ATC (RADAR)
Fri 07:32:53 AM -35.1140 136.2390 266° West 381 438 37,000  Descending FlightAware ADS-B
Fri 07:33:26 AM -35.1187 136.1618 266° West 382 440 37,200  Climbing Aus ATC (RADAR)
Fri 07:33:27 AM -35.1190 136.1650 266° West 382 440 37,000  Descending FlightAware ADS-B
Fri 07:34:06 AM -35.1227 136.0758 266° West 383 441 37,200  Climbing Aus ATC (RADAR)
Fri 07:34:08 AM -35.1240 136.0810 266° West 382 440 37,000  Descending FlightAware ADS-B
Fri 07:34:41 AM -35.1281 136.0005 266° West 383 441 37,200  Climbing Aus ATC (RADAR)
Fri 07:34:53 AM -35.1300 135.9820 266° West 382 440 37,000  Descending FlightAware ADS-B
Fri 07:35:46 AM -35.1366 135.8613 266° West 382 440 37,200  Climbing Aus ATC (RADAR)
Fri 07:35:52 AM -35.1370 135.8700 266° West 381 438 37,000 -231 Descending FlightAware ADS-B
Fri 07:36:38 AM -35.1440 135.7560 266° West 383 441 37,000  Level FlightAware ADS-B
Fri 07:37:23 AM -35.1500 135.6580 266° West 387 445 37,000 250 Level FlightAware ADS-B
Fri 07:37:26 AM -35.1503 135.6449 266° West 388 447 37,200 316 Climbing Aus ATC (RADAR)
Fri 07:38:01 AM -35.1537 135.5682 266° West 389 448 37,200 -197 Level Aus ATC (RADAR)
Fri 07:38:27 AM -35.1580 135.5200 266° West 390 449 37,000 -190 Descending FlightAware ADS-B
Fri 07:39:04 AM -35.1610 135.4510 267° West 390 449 37,000  Level FlightAware ADS-B
Fri 07:39:43 AM -35.1670 135.3550 267° West 392 451 37,000 255 Level FlightAware ADS-B
Fri 07:39:51 AM -35.1683 135.3262 267° West 393 452 37,200 279 Climbing Aus ATC (RADAR)
Fri 07:40:26 AM -35.1707 135.2486 267° West 394 453 37,200 -293 Level Aus ATC (RADAR)
Fri 07:40:32 AM -35.1730 135.2470 267° West 393 452 37,000 -250 Descending FlightAware ADS-B
Fri 07:41:14 AM -35.1780 135.1560 266° West 393 452 37,000  Level FlightAware ADS-B
Fri 07:41:58 AM -35.1830 135.0600 266° West 394 453 37,000  Level FlightAware ADS-B
Fri 07:42:38 AM -35.1890 134.9610 266° West 394 453 37,000 146 Level FlightAware ADS-B
Fri 07:43:20 AM -35.1899 134.8602 266° West 395 455 37,200  Climbing Aus ATC (RADAR)
Fri 07:43:36 AM -35.1940 134.8440 266° West 395 455 37,000 -231 Descending FlightAware ADS-B
Fri 07:44:12 AM -35.1970 134.7760 267° West 395 455 37,000  Level FlightAware ADS-B
Fri 07:45:08 AM -35.2050 134.6380 267° West 393 452 37,000 207 Level FlightAware ADS-B
Fri 07:45:10 AM -35.2075 134.6176 267° West 394 453 37,200 375 Climbing Aus ATC (RADAR)
Fri 07:45:40 AM -35.2108 134.5505 267° West 397 457 37,200 -261 Level Aus ATC (RADAR)
Fri 07:45:56 AM -35.2090 134.5470 267° West 393 452 37,000 -226 Descending FlightAware ADS-B
Fri 07:46:33 AM -35.2120 134.4770 267° West 393 452 37,000 143 Level FlightAware ADS-B
Fri 07:47:20 AM -35.2172 134.3282 267° West 395 455 37,200  Climbing Aus ATC (RADAR)
Fri 07:47:33 AM -35.2170 134.3640 267° West 393 452 37,000 -245 Descending FlightAware ADS-B
Fri 07:48:09 AM -35.2200 134.2960 267° West 393 452 37,000  Level FlightAware ADS-B
Fri 07:48:58 AM -35.2240 134.2030 267° West 393 452 37,000  Level FlightAware ADS-B
Fri 07:49:34 AM -35.2260 134.1350 267° West 393 452 37,000 324 Level FlightAware ADS-B
Fri 07:49:35 AM -35.2311 134.0278 267° West 395 455 37,200  Climbing Aus ATC (RADAR)
Fri 07:50:10 AM -35.2351 133.9499 267° West 395 455 37,000 -255 Descending Aus ATC (RADAR)
Fri 07:50:22 AM -35.2300 134.0450 267° West 393 452 37,000  Level FlightAware ADS-B
Fri 07:50:59 AM -35.2330 133.9750 267° West 393 452 37,000  Level FlightAware ADS-B
Fri 07:51:35 AM -35.2360 133.9070 267° West 393 452 37,000  Level FlightAware ADS-B
Fri 07:52:15 AM -35.2482 133.6724 267° West 395 455 37,000  Level Aus ATC (RADAR)
Fri 07:52:24 AM -35.2400 133.8140 267° West 393 452 37,000  Level FlightAware ADS-B
Fri 07:53:00 AM -35.2430 133.7460 267° West 393 452 37,000  Level FlightAware ADS-B
Fri 07:53:48 AM -35.2470 133.6550 267° West 393 452 37,000  Level FlightAware ADS-B
Fri 07:54:24 AM -35.2500 133.5870 267° West 393 452 37,000 19 Level FlightAware ADS-B
Fri 07:57:00 AM -35.2204 133.2468 276° West  Level FlightAware Approximate
Fri 07:58:00 AM -35.2088 133.1160 276° West  Level FlightAware Approximate
Fri 07:59:00 AM -35.1971 132.9852 276° West  Level FlightAware Approximate
Fri 08:00:00 AM -35.1852 132.8545 276° West  Level FlightAware Approximate
Fri 08:00:24 AM -35.1647 132.6237 276° West 38,000  Level Aus ATC (Calculated)
Fri 08:02:00 AM -35.1448 132.4140 277° West  Level FlightAware Approximate
Fri 08:02:23 AM -35.1378 132.3425 276° West 38,000  Level Aus ATC (Calculated)
Fri 08:04:00 AM -35.1171 132.1308 277° West  Level FlightAware Approximate
Fri 08:05:00 AM -35.1042 131.9998 277° West  Level FlightAware Approximate
Fri 08:05:28 AM -35.0963 131.9210 276° West 38,000  Level Aus ATC (Calculated)
Fri 08:05:40 AM -35.0963 131.9210 276° West 38,000 10 Level Aus ATC (Calculated)
Fri 08:07:00 AM -35.0787 131.7466 277° West  Level FlightAware Approximate
Fri 08:07:18 AM -35.0750 131.7104 276° West 38,000  Level Aus ATC (Calculated)
Fri 08:08:23 AM -35.0642 131.6052 276° West 38,000 11 Level Aus ATC (Calculated)
Fri 08:09:43 AM -35.0414 131.3789 276° West 38,000 11 Level Aus ATC (Calculated)
Fri 08:11:00 AM -35.0579 131.5468 97° East  Level FlightAware Approximate
Fri 08:11:25 AM -35.0197 131.1668 276° West 38,000  Level Aus ATC (Calculated)
Fri 08:13:00 AM -35.0407 131.3738 97° East  Level FlightAware Approximate
Fri 08:13:23 AM -34.9885 130.8687 276° West 38,000  Level Aus ATC (Calculated)
Fri 08:13:47 AM -34.9885 130.8687 276° West 38,000 11 Level Aus ATC (Calculated)
Fri 08:14:51 AM -34.9693 130.6887 277° West 38,000 12 Level Aus ATC (Calculated)
Fri 08:15:00 AM -35.0051 131.0277 97° East  Level FlightAware Approximate
Fri 08:16:00 AM -34.9483 130.5396 277° West  Level Estimated
Fri 08:17:00 AM -34.9343 130.4091 277° West  Level FlightAware Approximate
Fri 08:17:17 AM -34.9326 130.3515 277° West 38,000  Level Aus ATC (Calculated)
Fri 08:17:17 AM -34.9326 130.3515 277° West 38,000 12 Level Aus ATC (Calculated)
Fri 08:19:00 AM -34.9078 130.1277 278° West  Level FlightAware Approximate
Fri 08:20:00 AM -34.8931 129.9974 278° West  Level FlightAware Approximate
Fri 08:21:00 AM -34.8783 129.8671 278° West  Level FlightAware Approximate
Fri 08:22:00 AM -34.8633 129.7369 278° West  Level FlightAware Approximate
Fri 08:23:00 AM -34.8482 129.6067 278° West  Level FlightAware Approximate
Fri 08:24:00 AM -34.8330 129.4766 278° West  Level FlightAware Approximate
Fri 08:24:00 AM -34.8233 129.3943 277° West 38,000  Level Aus ATC (Calculated)
Fri 08:25:00 AM -34.8078 129.2642 278° West  Level FlightAware Approximate
Fri 08:26:00 AM -34.7922 129.1342 278° West  Level FlightAware Approximate
Fri 08:26:06 AM -34.7920 129.1324 277° West 38,000  Level Aus ATC (Calculated)
Fri 08:28:00 AM -34.7620 128.8856 278° West  Level FlightAware Approximate
Fri 08:28:52 AM -34.7400 128.7073 277° West 38,000  Level Aus ATC (Calculated)
Fri 08:29:09 AM -34.7400 128.7073 277° West 38,000 14 Level Aus ATC (Calculated)
Fri 08:29:37 AM -34.7290 128.6188 277° West 38,000 14 Level Aus ATC (Calculated)
Fri 08:31:00 AM -34.7064 128.4393 279° West  Level FlightAware Approximate
Fri 08:32:00 AM -34.6899 128.3096 279° West  Level FlightAware Approximate
Fri 08:33:00 AM -34.6733 128.1800 279° West  Level FlightAware Approximate
Fri 08:34:00 AM -34.6566 128.0505 279° West  Level FlightAware Approximate
Fri 08:34:05 AM -34.6500 128.0000 278° West 38,000  Level Aus ATC (Calculated)
Fri 08:34:56 AM -34.6377 127.9058 278° West 38,000 16 Level Aus ATC (Calculated)
Fri 08:36:00 AM -34.6557 128.0440 99° East  Level FlightAware Approximate
Fri 08:36:00 AM -34.6130 127.7175 278° West 38,000  Level Aus ATC (Calculated)
Fri 08:37:00 AM -34.6307 127.8523 99° East  Level FlightAware Approximate
Fri 08:38:00 AM -34.6483 127.9872 99° East  Level FlightAware Approximate
Fri 08:39:00 AM -34.6658 128.1222 99° East  Level FlightAware Approximate
Fri 08:39:01 AM -34.5626 127.3412 278° West 38,000  Level Aus ATC (Calculated)
Fri 08:41:00 AM -34.5151 127.0768 279° West  Level Estimated
Fri 08:42:00 AM -34.4972 126.9422 279° West  Level FlightAware Approximate
Fri 08:42:31 AM -34.4980 126.8715 278° West 38,000  Level Aus ATC (Calculated)
Fri 08:43:00 AM -34.4791 126.8076 279° West  Level FlightAware Approximate
Fri 08:43:51 AM -34.4716 126.6838 278° West 38,000  Level Aus ATC (Calculated)
Fri 08:44:00 AM -34.4700 126.6721 280° West  Level FlightAware Approximate
Fri 08:45:00 AM -34.4497 126.5293 280° West  Level FlightAware Approximate
Fri 08:46:00 AM -34.4305 126.3950 280° West  Level FlightAware Approximate
Fri 08:46:31 AM -34.4181 126.3087 278° West 38,000  Level Aus ATC (Calculated)
Fri 08:47:35 AM -34.3909 126.1214 278° West 38,000 20 Level Aus ATC (Calculated)
Fri 08:49:00 AM -34.3630 125.9315 280° West  Level FlightAware Approximate
Fri 08:49:04 AM -34.3634 125.9342 278° West 38,000  Level Aus ATC (Calculated)
Fri 08:51:00 AM -34.3249 125.6752 280° West  Level FlightAware Approximate
Fri 08:51:44 AM -34.3076 125.5601 279° West 38,000  Level Aus ATC (Calculated)
Fri 08:52:00 AM -34.3047 125.5414 280° West  Level FlightAware Approximate
Fri 08:52:25 AM -34.2934 125.4667 279° West 38,000  Level Aus ATC (Calculated)
Fri 08:54:00 AM -34.2611 125.2550 280° West  Level FlightAware Approximate
Fri 08:55:00 AM -34.2405 125.1213 281° West  Level FlightAware Approximate
Fri 08:56:00 AM -34.2198 124.9877 281° West  Level FlightAware Approximate
Fri 08:57:00 AM -34.2405 125.1213 101° East  Level FlightAware Approximate
Fri 08:58:00 AM -34.2198 124.9877 281° West  Level FlightAware Approximate
Fri 08:59:00 AM -34.2405 125.1213 101° East  Level FlightAware Approximate
Fri 08:59:11 AM -34.1585 124.6008 279° West 38,000  Level Aus ATC (Calculated)
Fri 08:59:39 AM -34.1426 124.5011 279° West 38,000 28 Level Aus ATC (Calculated)
Fri 09:01:00 AM -34.1713 124.6811 101° East  Level FlightAware Approximate
Fri 09:02:00 AM -34.1925 124.8145 101° East  Level FlightAware Approximate
Fri 09:02:35 AM -34.0778 124.1027 279° West 38,000  Level Aus ATC (Calculated)
Fri 09:03:00 AM -34.2135 124.9480 101° East  Level FlightAware Approximate
Fri 09:03:32 AM -34.0449 123.9037 279° West 38,000  Level Aus ATC (Calculated)
Fri 09:04:00 AM -34.0360 123.9173 281° West  Level Estimated
Fri 09:05:00 AM -34.0124 123.7087 281° West  Level FlightAware Approximate
Fri 09:05:01 AM -34.0117 123.7049 279° West 38,000  Level Aus ATC (Calculated)
Fri 09:07:00 AM -33.9672 123.4415 281° West  Level FlightAware Approximate
Fri 09:08:00 AM -33.9446 123.3088 282° West  Level FlightAware Approximate
Fri 09:08:32 AM -33.9444 123.3077 279° West 38,000  Level Aus ATC (Calculated)
Fri 09:09:00 AM -33.9218 123.1761 282° West  Level FlightAware Approximate
Fri 09:10:00 AM -33.9109 123.1132 282° West  Level FlightAware Approximate
Fri 09:10:27 AM -33.8931 123.0102 279° West 38,000  Level Aus ATC (Calculated)
Fri 09:12:00 AM -33.8572 122.8049 282° West  Level FlightAware Approximate
Fri 09:13:00 AM -33.8339 122.6725 282° West  Level FlightAware Approximate
Fri 09:13:04 AM -33.8235 122.6141 278° West 38,000  Level Aus ATC (Calculated)
Fri 09:15:00 AM -33.7779 122.3584 282° West  Level FlightAware Approximate
Fri 09:15:26 AM -33.7705 122.3174 278° West 38,000  Level Aus ATC (Calculated)
Fri 09:16:34 AM -33.7348 122.1198 278° West 38,000 55 Level Aus ATC (Calculated)
Fri 09:18:00 AM -33.7002 121.9307 282° West  Level FlightAware Approximate
Fri 09:19:00 AM -33.6760 121.7988 282° West  Level FlightAware Approximate
Fri 09:20:00 AM -33.7002 121.9307 103° East  Level FlightAware Approximate
Fri 09:20:26 AM -33.6177 121.6110 276° West 38,000  Level Aus ATC (Calculated)
Fri 09:21:00 AM -33.6760 121.7988 282° West  Level FlightAware Approximate
Fri 09:22:00 AM -33.6766 121.8102 110° East  Level FlightAware Approximate
Fri 09:22:26 AM -33.5543 121.3984 274° West 38,000  Level Aus ATC (Calculated)
Fri 09:23:00 AM -33.7141 121.9376 110° East  Level FlightAware Approximate
Fri 09:23:33 AM -33.4907 121.1862 271° West 38,000  Level Aus ATC (Calculated)
Fri 09:24:00 AM -33.6136 121.5974 110° East  Level FlightAware Approximate
Fri 09:25:00 AM -33.5459 121.3701 110° East  Level FlightAware Approximate
Fri 09:25:12 AM -33.4266 120.9743 267° West 38,000  Level Aus ATC (Calculated)
Fri 09:26:13 AM -33.3838 120.8332 263° West 38,000 136 Level Aus ATC (Calculated)
Fri 09:27:33 AM -33.3407 120.6923 258° West 38,000 160 Level Aus ATC (Calculated)
Fri 09:27:45 AM -33.3407 120.6923 258° West 38,000 210 Level Aus ATC (Calculated)
Fri 09:28:54 AM -33.2758 120.4811 247° West 38,000 220 Level Aus ATC (Calculated)
Fri 09:29:00 AM -33.3889 120.8502 110° East  Level FlightAware Approximate
Fri 09:30:00 AM -33.2373 120.3406 289° West  Level Estimated
Fri 09:31:50 AM -33.4700 119.9383 289° West 434 499 38,900  Level Aus ATC (RADAR)
Fri 09:32:55 AM -33.4012 119.8039 301° West 432 497 38,900  Level Aus ATC (RADAR)
Fri 09:33:54 AM -33.3420 119.6785 299° West 429 494 38,900  Level Aus ATC (RADAR)
Fri 09:34:59 AM -33.2797 119.5426 299° West 424 488 38,900  Level Aus ATC (RADAR)
Fri 09:36:04 AM -33.2163 119.4075 299° West 424 488 38,900 63 Level Aus ATC (RADAR)
Fri 09:36:35 AM -33.1930 119.3460 300° West 432 497 39,000  Climbing FlightAware ADS-B
Fri 09:37:09 AM -33.1514 119.2734 300° West 427 491 38,900  Descending Aus ATC (RADAR)
Fri 09:37:14 AM -33.1550 119.2660 300° West 432 497 39,000 130 Climbing FlightAware ADS-B
Fri 09:37:55 AM -33.1140 119.1820 300° West 428 493 39,000  Level FlightAware ADS-B
Fri 09:38:39 AM -33.0690 119.0880 300° West 429 494 39,000 71 Level FlightAware ADS-B
Fri 09:39:19 AM -33.0230 119.0047 300° West 425 489 39,100  Climbing Aus ATC (RADAR)
Fri 09:39:20 AM -33.0290 119.0050 300° West 430 495 39,000 -146 Descending FlightAware ADS-B
Fri 09:40:00 AM -32.9890 118.9240 300° West 431 496 39,000  Level FlightAware ADS-B
Fri 09:40:40 AM -32.9480 118.8370 299° West 432 497 39,000  Level FlightAware ADS-B
Fri 09:41:20 AM -32.9080 118.7560 299° West 432 497 39,000 136 Level FlightAware ADS-B
Fri 09:41:24 AM -32.8967 118.7465 299° West 425 489 39,100  Climbing Aus ATC (RADAR)
Fri 09:41:59 AM -32.8680 118.6750 300° West 433 498 39,000  Descending FlightAware ADS-B
Fri 09:42:29 AM -32.8319 118.6107 300° West 429 494 39,100 -130 Climbing Aus ATC (RADAR)
Fri 09:42:45 AM -32.8220 118.5800 300° West 434 499 38,900 -1,700 Descending FlightAware ADS-B
Fri 09:43:29 AM -32.7760 118.4860 300° West 434 499 37,400 -1,906 Descending FlightAware ADS-B
Fri 09:44:10 AM -32.7350 118.4030 300° West 424 488 36,200 -1,778 Descending FlightAware ADS-B
Fri 09:44:50 AM -32.6960 118.3240 300° West 419 482 35,000 -1,760 Descending FlightAware ADS-B
Fri 09:45:25 AM -32.6610 118.2530 300° West 414 476 34,000 -1,760 Descending FlightAware ADS-B
Fri 09:46:05 AM -32.6230 118.1770 301° West 404 465 32,800 -1,769 Descending FlightAware ADS-B
Fri 09:46:43 AM -32.5818 118.0998 301° West 393 452 31,700 -1,773 Descending Aus ATC (RADAR)
Fri 09:46:49 AM -32.5810 118.0910 301° West 398 458 31,500 -1,660 Descending FlightAware ADS-B
Fri 09:47:30 AM -32.5430 118.0140 300° West 391 450 30,400 -1,610 Descending FlightAware ADS-B
Fri 09:48:11 AM -32.5070 117.9420 301° West 390 449 29,300 -1,373 Descending FlightAware ADS-B
Fri 09:48:53 AM -32.4633 117.8600 301° West 370 426 28,500 -1,227 Descending Aus ATC (RADAR)
Fri 09:48:55 AM -32.4660 117.8600 301° West 369 425 28,400 -1,610 Descending FlightAware ADS-B
Fri 09:49:34 AM -32.4310 117.7910 301° West 360 414 27,400 -1,520 Descending FlightAware ADS-B
Fri 09:50:10 AM -32.4010 117.7310 301° West 356 410 26,500 -1,610 Descending FlightAware ADS-B
Fri 09:50:56 AM -32.3650 117.6550 301° West 350 403 25,200 -1,625 Descending FlightAware ADS-B
Fri 09:50:58 AM -32.3594 117.6481 301° West 341 392 25,200 -1,714 Level Aus ATC (RADAR)
Fri 09:51:31 AM -32.3480 117.5910 287° West 343 395 24,200 -1,569 Descending FlightAware ADS-B
Fri 09:52:03 AM -32.3324 117.5303 287° West 330 380 23,500 -1,500 Descending Aus ATC (RADAR)
Fri 09:52:11 AM -32.3310 117.5190 287° West 336 387 23,200 -923 Descending FlightAware ADS-B
Fri 09:52:55 AM -32.3120 117.4420 286° West 316 364 22,700 -825 Descending FlightAware ADS-B
Fri 09:53:31 AM -32.2990 117.3850 285° West 306 352 22,100 -1,077 Descending FlightAware ADS-B
Fri 09:54:13 AM -32.2807 117.3152 285° West 292 336 21,300 -1,227 Descending Aus ATC (RADAR)
Fri 09:54:15 AM -32.2810 117.3130 285° West 301 346 21,200 -1,535 Descending FlightAware ADS-B
Fri 09:54:56 AM -32.2660 117.2480 285° West 304 350 20,200 -1,395 Descending FlightAware ADS-B
Fri 09:55:41 AM -32.2480 117.1760 286° West 302 348 19,200 -1,271 Descending FlightAware ADS-B
Fri 09:56:21 AM -32.2330 117.1140 286° West 297 342 18,400 -1,024 Descending FlightAware ADS-B
Fri 09:56:22 AM -32.2304 117.1093 286° West 290 334 18,500 -933 Climbing Aus ATC (RADAR)
Fri 09:57:06 AM -32.2160 117.0440 286° West 289 333 17,700 -1,159 Descending FlightAware ADS-B
Fri 09:57:50 AM -32.2000 116.9780 286° West 285 328 16,800 -1,200 Descending FlightAware ADS-B
Fri 09:58:31 AM -32.1850 116.9180 286° West 282 325 16,000 -1,000 Descending FlightAware ADS-B
Fri 09:58:32 AM -32.1830 116.9138 286° West 272 313 16,100 -2,400 Climbing Aus ATC (RADAR)
Fri 09:58:56 AM -32.1700 116.8830 297° West 293 337 15,000 -1,800 Descending FlightAware ADS-B
Fri 09:59:32 AM -32.1362 116.8347 297° West 290 334 14,300 -1,467 Descending Aus ATC (RADAR)
Fri 09:59:41 AM -32.1320 116.8260 297° West 295 339 13,900 -1,592 Descending FlightAware ADS-B
Fri 10:00:21 AM -32.0980 116.7750 308° West 293 337 13,000 -1,275 Descending FlightAware ADS-B
Fri 10:01:01 AM -32.0630 116.7220 308° West 293 337 12,200 -1,360 Descending FlightAware ADS-B
Fri 10:01:36 AM -32.0340 116.6790 308° West 293 337 11,300 -1,317 Descending FlightAware ADS-B
Fri 10:01:42 AM -32.0267 116.6695 308° West 283 326 11,300 -1,467 Level Aus ATC (RADAR)
Fri 10:02:21 AM -31.9970 116.6230 308° West 295 339 10,200 -1,500 Descending FlightAware ADS-B
Fri 10:02:46 AM -31.9750 116.5900 308° West 295 339 9,700 -1,091 Descending FlightAware ADS-B
Fri 10:03:16 AM -31.9490 116.5520 309° West 293 337 9,200 -1,091 Descending FlightAware ADS-B
Fri 10:03:41 AM -31.9310 116.5190 309° West 288 331 8,700 -1,000 Descending FlightAware ADS-B
Fri 10:03:52 AM -31.9222 116.5011 309° West 278 320 8,600 -900 Descending Aus ATC (RADAR)
Fri 10:04:01 AM -31.9180 116.4930 300° West 285 328 8,400 -1,235 Descending FlightAware ADS-B
Fri 10:04:26 AM -31.9010 116.4600 301° West 282 325 7,900 -1,080 Descending FlightAware ADS-B
Fri 10:04:51 AM -31.8840 116.4260 300° West 277 319 7,500 -1,091 Descending FlightAware ADS-B
Fri 10:05:21 AM -31.8640 116.3870 301° West 272 313 6,900 -1,200 Descending FlightAware ADS-B
Fri 10:05:36 AM -31.8550 116.3690 300° West 276 318 6,600 -720 Descending FlightAware ADS-B
Fri 10:06:11 AM -31.8320 116.3240 301° West 258 297 6,300 -738 Descending FlightAware ADS-B
Fri 10:06:41 AM -31.8130 116.2880 302° West 257 296 5,800 -982 Descending FlightAware ADS-B
Fri 10:07:06 AM -31.7980 116.2580 300° West 256 295 5,400 -1,200 Descending FlightAware ADS-B
Fri 10:07:36 AM -31.7860 116.2200 290° West 257 296 4,700 -1,636 Descending FlightAware ADS-B
Fri 10:08:01 AM -31.7780 116.1860 285° West 254 292 3,900 -1,467 Descending FlightAware ADS-B
Fri 10:08:21 AM -31.7720 116.1610 286° West 251 289 3,600 -857 Descending FlightAware ADS-B
Fri 10:08:36 AM -31.7670 116.1390 285° West 249 287 3,400 -400 Descending FlightAware ADS-B
Fri 10:09:06 AM -31.7577 116.0983 285° West 232 267 3,300 -400 Descending Aus ATC (RADAR)
Fri 10:09:06 AM -31.7580 116.1010 285° West 231 266 3,200 -667 Descending FlightAware ADS-B
Fri 10:09:51 AM -31.7690 116.0540 255° West 191 220 2,800 -592 Descending FlightAware ADS-B
Fri 10:10:17 AM -31.7820 116.0340 233° Southwest 189 217 2,500 -480 Descending FlightAware ADS-B
Fri 10:10:41 AM -31.7950 116.0150 231° Southwest 165 190 2,400 -136 Descending FlightAware ADS-B
Fri 10:11:01 AM -31.8070 116.0060 213° Southwest 162 186 2,400 -689 Level FlightAware ADS-B
Fri 10:11:42 AM -31.8380 115.9950 197° South 160 184 1,700 -831 Descending FlightAware ADS-B
Fri 10:12:06 AM -31.8540 115.9900 195° South 155 178 1,500 -720 Descending FlightAware ADS-B
Fri 10:12:32 AM -31.8700 115.9860 192° South 134 154 1,100 -808 Descending FlightAware ADS-B
Fri 10:12:58 AM -31.8870 115.9810 194° South 122 140 800 -679 Descending FlightAware ADS-B
Fri 10:13:25 AM -31.9030 115.9760 195° South 137 158 500 -778 Descending FlightAware ADS-B
Fri 10:13:52 AM -31.9200 115.9710 194° South 134 154 100 -889 Descending FlightAware ADS-B
Fri 10:14:19 AM -31.9380 115.9660 193° South 135 155 -222 Descending FlightAware ADS-B
Fri 10:14:52 AM -31.9490 115.9630 193° South 36 41  Level FlightAware ADS-B

Login

Don't have an account? Register now (free) for customized features, flight alerts, and more!